sensor_id;sensor_type;location;lat;lon;timestamp;temperature;humidity
67572;SHT31;54397;47.506;19.158;2023-02-28T00:00:37;2.83;56.57
67572;SHT31;54397;47.506;19.158;2023-02-28T00:04:02;2.90;55.66
67572;SHT31;54397;47.506;19.158;2023-02-28T00:07:24;3.03;54.80
67572;SHT31;54397;47.506;19.158;2023-02-28T00:10:48;2.97;55.55
67572;SHT31;54397;47.506;19.158;2023-02-28T00:14:12;2.84;55.92
67572;SHT31;54397;47.506;19.158;2023-02-28T00:17:37;2.77;56.45
67572;SHT31;54397;47.506;19.158;2023-02-28T00:20:58;2.80;55.61
67572;SHT31;54397;47.506;19.158;2023-02-28T00:24:22;3.04;55.13
67572;SHT31;54397;47.506;19.158;2023-02-28T00:27:45;3.01;54.96
67572;SHT31;54397;47.506;19.158;2023-02-28T00:31:06;2.86;56.23
67572;SHT31;54397;47.506;19.158;2023-02-28T00:34:30;2.72;56.42
67572;SHT31;54397;47.506;19.158;2023-02-28T00:37:52;2.67;56.95
67572;SHT31;54397;47.506;19.158;2023-02-28T00:41:14;2.62;56.87
67572;SHT31;54397;47.506;19.158;2023-02-28T00:44:35;2.59;57.10
67572;SHT31;54397;47.506;19.158;2023-02-28T00:47:59;2.60;57.46
67572;SHT31;54397;47.506;19.158;2023-02-28T00:51:23;2.65;57.53
67572;SHT31;54397;47.506;19.158;2023-02-28T00:54:48;2.60;57.22
67572;SHT31;54397;47.506;19.158;2023-02-28T00:58:10;2.72;56.85
67572;SHT31;54397;47.506;19.158;2023-02-28T01:01:31;2.69;56.96
67572;SHT31;54397;47.506;19.158;2023-02-28T01:04:53;2.71;56.53
67572;SHT31;54397;47.506;19.158;2023-02-28T01:08:17;2.94;56.07
67572;SHT31;54397;47.506;19.158;2023-02-28T01:11:41;2.99;56.15
67572;SHT31;54397;47.506;19.158;2023-02-28T01:15:06;2.82;56.98
67572;SHT31;54397;47.506;19.158;2023-02-28T01:18:30;2.86;56.33
67572;SHT31;54397;47.506;19.158;2023-02-28T01:21:52;2.99;55.50
67572;SHT31;54397;47.506;19.158;2023-02-28T01:25:14;2.77;56.64
67572;SHT31;54397;47.506;19.158;2023-02-28T01:28:36;2.65;57.28
67572;SHT31;54397;47.506;19.158;2023-02-28T01:31:58;2.56;57.49
67572;SHT31;54397;47.506;19.158;2023-02-28T01:35:21;2.75;57.58
67572;SHT31;54397;47.506;19.158;2023-02-28T01:38:45;2.69;57.65
67572;SHT31;54397;47.506;19.158;2023-02-28T01:42:09;2.66;59.04
67572;SHT31;54397;47.506;19.158;2023-02-28T01:45:33;2.57;58.06
67572;SHT31;54397;47.506;19.158;2023-02-28T01:49:06;2.60;58.26
67572;SHT31;54397;47.506;19.158;2023-02-28T01:52:29;2.52;58.61
67572;SHT31;54397;47.506;19.158;2023-02-28T01:55:52;2.52;58.81
67572;SHT31;54397;47.506;19.158;2023-02-28T01:59:22;2.60;59.17
67572;SHT31;54397;47.506;19.158;2023-02-28T02:02:51;2.52;58.93
67572;SHT31;54397;47.506;19.158;2023-02-28T02:06:13;2.44;59.47
67572;SHT31;54397;47.506;19.158;2023-02-28T02:09:35;2.42;59.39
67572;SHT31;54397;47.506;19.158;2023-02-28T02:17:08;2.59;60.06
67572;SHT31;54397;47.506;19.158;2023-02-28T02:21:05;2.63;60.00
67572;SHT31;54397;47.506;19.158;2023-02-28T02:28:46;2.84;59.40
67572;SHT31;54397;47.506;19.158;2023-02-28T02:32:39;2.72;59.71
67572;SHT31;54397;47.506;19.158;2023-02-28T02:36:13;2.57;60.61
67572;SHT31;54397;47.506;19.158;2023-02-28T02:43:30;2.59;60.75
67572;SHT31;54397;47.506;19.158;2023-02-28T02:47:05;2.52;60.71
67572;SHT31;54397;47.506;19.158;2023-02-28T02:50:41;2.63;60.08
67572;SHT31;54397;47.506;19.158;2023-02-28T02:54:08;2.62;60.54
67572;SHT31;54397;47.506;19.158;2023-02-28T02:57:38;2.75;59.68
67572;SHT31;54397;47.506;19.158;2023-02-28T03:01:06;2.72;59.50
67572;SHT31;54397;47.506;19.158;2023-02-28T03:04:32;2.83;59.73
67572;SHT31;54397;47.506;19.158;2023-02-28T03:07:54;2.77;60.37
67572;SHT31;54397;47.506;19.158;2023-02-28T03:11:16;2.76;60.12
67572;SHT31;54397;47.506;19.158;2023-02-28T03:14:56;2.77;60.20
67572;SHT31;54397;47.506;19.158;2023-02-28T03:26:16;2.67;60.62
67572;SHT31;54397;47.506;19.158;2023-02-28T03:29:46;2.65;60.26
67572;SHT31;54397;47.506;19.158;2023-02-28T03:33:15;2.55;61.19
67572;SHT31;54397;47.506;19.158;2023-02-28T03:36:45;2.60;60.61
67572;SHT31;54397;47.506;19.158;2023-02-28T03:40:17;2.63;60.08
67572;SHT31;54397;47.506;19.158;2023-02-28T03:43:44;2.60;59.83
67572;SHT31;54397;47.506;19.158;2023-02-28T03:47:11;2.76;59.34
67572;SHT31;54397;47.506;19.158;2023-02-28T03:50:41;2.71;59.82
67572;SHT31;54397;47.506;19.158;2023-02-28T03:54:08;2.66;60.32
67572;SHT31;54397;47.506;19.158;2023-02-28T03:57:57;2.67;59.84
67572;SHT31;54397;47.506;19.158;2023-02-28T04:01:25;2.69;60.20
67572;SHT31;54397;47.506;19.158;2023-02-28T04:04:54;2.65;60.24
67572;SHT31;54397;47.506;19.158;2023-02-28T04:08:15;2.62;60.22
67572;SHT31;54397;47.506;19.158;2023-02-28T04:11:42;2.60;60.79
67572;SHT31;54397;47.506;19.158;2023-02-28T04:15:07;2.59;61.38
67572;SHT31;54397;47.506;19.158;2023-02-28T04:18:31;2.63;61.12
67572;SHT31;54397;47.506;19.158;2023-02-28T04:21:53;2.60;61.05
67572;SHT31;54397;47.506;19.158;2023-02-28T04:25:15;2.72;60.74
67572;SHT31;54397;47.506;19.158;2023-02-28T04:28:37;2.67;61.12
67572;SHT31;54397;47.506;19.158;2023-02-28T04:32:02;2.60;60.52
67572;SHT31;54397;47.506;19.158;2023-02-28T04:35:26;2.83;60.11
67572;SHT31;54397;47.506;19.158;2023-02-28T04:38:48;2.94;59.40
67572;SHT31;54397;47.506;19.158;2023-02-28T04:42:12;3.04;59.07
67572;SHT31;54397;47.506;19.158;2023-02-28T04:45:34;3.27;59.06
67572;SHT31;54397;47.506;19.158;2023-02-28T04:48:58;3.11;58.09
67572;SHT31;54397;47.506;19.158;2023-02-28T04:52:22;3.08;58.48
67572;SHT31;54397;47.506;19.158;2023-02-28T04:55:47;3.05;58.71
67572;SHT31;54397;47.506;19.158;2023-02-28T04:59:08;3.03;58.27
67572;SHT31;54397;47.506;19.158;2023-02-28T05:02:30;3.03;58.28
67572;SHT31;54397;47.506;19.158;2023-02-28T05:05:52;3.07;59.06
67572;SHT31;54397;47.506;19.158;2023-02-28T05:09:19;3.01;58.38
67572;SHT31;54397;47.506;19.158;2023-02-28T05:12:40;3.03;58.70
67572;SHT31;54397;47.506;19.158;2023-02-28T05:16:04;2.93;59.01
67572;SHT31;54397;47.506;19.158;2023-02-28T05:19:29;2.97;58.65
67572;SHT31;54397;47.506;19.158;2023-02-28T05:22:53;3.03;58.25
67572;SHT31;54397;47.506;19.158;2023-02-28T05:26:16;2.99;58.47
67572;SHT31;54397;47.506;19.158;2023-02-28T05:29:38;2.92;58.65
67572;SHT31;54397;47.506;19.158;2023-02-28T05:33:03;2.87;58.67
67572;SHT31;54397;47.506;19.158;2023-02-28T05:36:24;2.80;58.29
67572;SHT31;54397;47.506;19.158;2023-02-28T05:39:51;2.93;58.18
67572;SHT31;54397;47.506;19.158;2023-02-28T05:43:12;2.96;57.94
67572;SHT31;54397;47.506;19.158;2023-02-28T05:46:34;2.94;57.76
67572;SHT31;54397;47.506;19.158;2023-02-28T05:49:56;2.86;57.86
67572;SHT31;54397;47.506;19.158;2023-02-28T05:53:20;2.89;58.44
67572;SHT31;54397;47.506;19.158;2023-02-28T05:56:42;2.87;57.71
67572;SHT31;54397;47.506;19.158;2023-02-28T06:00:10;2.92;58.43
67572;SHT31;54397;47.506;19.158;2023-02-28T06:03:31;2.92;58.35
67572;SHT31;54397;47.506;19.158;2023-02-28T06:06:53;3.05;57.81
67572;SHT31;54397;47.506;19.158;2023-02-28T06:10:19;3.14;57.16
67572;SHT31;54397;47.506;19.158;2023-02-28T06:13:43;3.21;56.55
67572;SHT31;54397;47.506;19.158;2023-02-28T06:17:05;3.10;57.29
67572;SHT31;54397;47.506;19.158;2023-02-28T06:20:27;3.07;57.34
67572;SHT31;54397;47.506;19.158;2023-02-28T06:23:53;3.07;56.99
67572;SHT31;54397;47.506;19.158;2023-02-28T06:27:17;3.18;57.25
67572;SHT31;54397;47.506;19.158;2023-02-28T06:30:41;3.28;56.82
67572;SHT31;54397;47.506;19.158;2023-02-28T06:34:06;3.25;57.49
67572;SHT31;54397;47.506;19.158;2023-02-28T06:37:28;3.32;56.77
67572;SHT31;54397;47.506;19.158;2023-02-28T06:40:54;3.43;56.35
67572;SHT31;54397;47.506;19.158;2023-02-28T06:44:17;3.41;56.34
67572;SHT31;54397;47.506;19.158;2023-02-28T06:47:40;3.41;56.46
67572;SHT31;54397;47.506;19.158;2023-02-28T06:54:28;3.56;56.21
67572;SHT31;54397;47.506;19.158;2023-02-28T06:57:49;3.68;56.56
67572;SHT31;54397;47.506;19.158;2023-02-28T07:01:13;3.80;56.26
67572;SHT31;54397;47.506;19.158;2023-02-28T07:04:37;4.00;55.26
67572;SHT31;54397;47.506;19.158;2023-02-28T07:08:02;4.03;54.98
67572;SHT31;54397;47.506;19.158;2023-02-28T07:11:26;4.13;54.22
67572;SHT31;54397;47.506;19.158;2023-02-28T07:14:49;4.20;54.60
67572;SHT31;54397;47.506;19.158;2023-02-28T07:18:10;4.28;54.06
67572;SHT31;54397;47.506;19.158;2023-02-28T07:21:32;4.22;53.34
67572;SHT31;54397;47.506;19.158;2023-02-28T07:24:54;4.42;52.79
67572;SHT31;54397;47.506;19.158;2023-02-28T07:28:16;4.51;52.64
67572;SHT31;54397;47.506;19.158;2023-02-28T07:31:40;4.89;60.13
67572;SHT31;54397;47.506;19.158;2023-02-28T07:35:02;4.89;52.23
67572;SHT31;54397;47.506;19.158;2023-02-28T07:38:25;4.86;52.35
67572;SHT31;54397;47.506;19.158;2023-02-28T07:41:47;4.99;52.06
67572;SHT31;54397;47.506;19.158;2023-02-28T07:45:11;5.17;50.95
67572;SHT31;54397;47.506;19.158;2023-02-28T07:48:33;4.73;51.26
67572;SHT31;54397;47.506;19.158;2023-02-28T07:51:56;4.95;51.86
67572;SHT31;54397;47.506;19.158;2023-02-28T07:55:18;4.99;51.21
67572;SHT31;54397;47.506;19.158;2023-02-28T07:58:42;4.99;51.44
67572;SHT31;54397;47.506;19.158;2023-02-28T08:02:04;4.85;51.21
67572;SHT31;54397;47.506;19.158;2023-02-28T08:05:25;5.07;50.13
67572;SHT31;54397;47.506;19.158;2023-02-28T08:08:49;5.58;50.08
67572;SHT31;54397;47.506;19.158;2023-02-28T08:12:12;5.89;49.77
67572;SHT31;54397;47.506;19.158;2023-02-28T08:15:33;5.89;49.05
67572;SHT31;54397;47.506;19.158;2023-02-28T08:18:57;6.03;48.71
67572;SHT31;54397;47.506;19.158;2023-02-28T08:22:19;6.31;47.40
67572;SHT31;54397;47.506;19.158;2023-02-28T08:25:41;6.27;47.53
67572;SHT31;54397;47.506;19.158;2023-02-28T08:29:02;6.71;46.14
67572;SHT31;54397;47.506;19.158;2023-02-28T08:32:24;7.33;44.78
67572;SHT31;54397;47.506;19.158;2023-02-28T08:35:55;7.75;44.25
67572;SHT31;54397;47.506;19.158;2023-02-28T08:39:16;7.81;44.19
67572;SHT31;54397;47.506;19.158;2023-02-28T08:42:39;7.92;42.73
67572;SHT31;54397;47.506;19.158;2023-02-28T08:46:01;7.99;42.55
67572;SHT31;54397;47.506;19.158;2023-02-28T08:49:25;7.22;43.66
67572;SHT31;54397;47.506;19.158;2023-02-28T08:52:49;7.60;43.95
67572;SHT31;54397;47.506;19.158;2023-02-28T08:56:15;7.79;43.35
67572;SHT31;54397;47.506;19.158;2023-02-28T08:59:38;7.77;43.34
67572;SHT31;54397;47.506;19.158;2023-02-28T09:02:59;7.51;43.89
67572;SHT31;54397;47.506;19.158;2023-02-28T09:06:23;7.61;44.68
67572;SHT31;54397;47.506;19.158;2023-02-28T09:09:45;7.43;43.85
67572;SHT31;54397;47.506;19.158;2023-02-28T09:13:15;7.16;44.25
67572;SHT31;54397;47.506;19.158;2023-02-28T09:16:37;7.03;44.76
67572;SHT31;54397;47.506;19.158;2023-02-28T09:20:01;6.74;44.87
67572;SHT31;54397;47.506;19.158;2023-02-28T09:23:23;6.61;45.39
67572;SHT31;54397;47.506;19.158;2023-02-28T09:26:45;6.55;46.31
67572;SHT31;54397;47.506;19.158;2023-02-28T09:30:24;6.41;46.13
67572;SHT31;54397;47.506;19.158;2023-02-28T09:33:50;6.42;47.33
67572;SHT31;54397;47.506;19.158;2023-02-28T09:37:14;6.74;46.91
67572;SHT31;54397;47.506;19.158;2023-02-28T09:40:58;6.74;46.03
67572;SHT31;54397;47.506;19.158;2023-02-28T09:44:31;7.12;46.69
67572;SHT31;54397;47.506;19.158;2023-02-28T09:47:59;7.19;45.96
67572;SHT31;54397;47.506;19.158;2023-02-28T09:51:48;7.31;47.05
67572;SHT31;54397;47.506;19.158;2023-02-28T10:06:26;7.89;45.55
67572;SHT31;54397;47.506;19.158;2023-02-28T10:09:55;7.95;45.35
67572;SHT31;54397;47.506;19.158;2023-02-28T10:13:26;8.05;45.63
67572;SHT31;54397;47.506;19.158;2023-02-28T10:17:04;8.32;44.84
67572;SHT31;54397;47.506;19.158;2023-02-28T10:20:37;8.05;45.04
67572;SHT31;54397;47.506;19.158;2023-02-28T10:28:13;8.41;44.68
67572;SHT31;54397;47.506;19.158;2023-02-28T10:31:35;8.39;45.15
67572;SHT31;54397;47.506;19.158;2023-02-28T10:38:33;8.57;44.32
67572;SHT31;54397;47.506;19.158;2023-02-28T10:41:55;8.41;44.24
67572;SHT31;54397;47.506;19.158;2023-02-28T10:45:22;8.43;44.87
67572;SHT31;54397;47.506;19.158;2023-02-28T10:48:50;8.82;44.04
67572;SHT31;54397;47.506;19.158;2023-02-28T10:52:40;9.11;43.94
67572;SHT31;54397;47.506;19.158;2023-02-28T10:59:30;9.09;43.12
67572;SHT31;54397;47.506;19.158;2023-02-28T11:02:52;8.36;45.40
67572;SHT31;54397;47.506;19.158;2023-02-28T11:06:34;8.23;45.77
67572;SHT31;54397;47.506;19.158;2023-02-28T11:09:57;8.26;44.30
67572;SHT31;54397;47.506;19.158;2023-02-28T11:13:21;8.01;44.38
67572;SHT31;54397;47.506;19.158;2023-02-28T11:16:44;7.86;45.98
67572;SHT31;54397;47.506;19.158;2023-02-28T11:20:07;8.34;45.01
67572;SHT31;54397;47.506;19.158;2023-02-28T11:23:40;8.78;44.19
67572;SHT31;54397;47.506;19.158;2023-02-28T11:27:05;9.11;44.32
67572;SHT31;54397;47.506;19.158;2023-02-28T11:33:53;9.26;43.75
67572;SHT31;54397;47.506;19.158;2023-02-28T11:37:18;9.01;44.50
67572;SHT31;54397;47.506;19.158;2023-02-28T11:44:39;8.87;44.84
67572;SHT31;54397;47.506;19.158;2023-02-28T11:48:30;8.68;45.33
67572;SHT31;54397;47.506;19.158;2023-02-28T11:51:59;8.67;45.06
67572;SHT31;54397;47.506;19.158;2023-02-28T11:59:12;9.87;43.62
67572;SHT31;54397;47.506;19.158;2023-02-28T12:10:10;9.93;43.03
67572;SHT31;54397;47.506;19.158;2023-02-28T12:32:42;10.98;42.41
67572;SHT31;54397;47.506;19.158;2023-02-28T12:36:09;11.12;41.93
67572;SHT31;54397;47.506;19.158;2023-02-28T12:39:43;10.97;41.12
67572;SHT31;54397;47.506;19.158;2023-02-28T12:43:13;10.74;42.14
67572;SHT31;54397;47.506;19.158;2023-02-28T12:46:58;10.32;42.64
67572;SHT31;54397;47.506;19.158;2023-02-28T12:50:21;10.19;43.34
67572;SHT31;54397;47.506;19.158;2023-02-28T12:54:28;10.33;43.86
67572;SHT31;54397;47.506;19.158;2023-02-28T13:12:17;10.18;46.00
67572;SHT31;54397;47.506;19.158;2023-02-28T13:15:39;10.39;50.77
67572;SHT31;54397;47.506;19.158;2023-02-28T13:19:10;10.71;53.20
67572;SHT31;54397;47.506;19.158;2023-02-28T13:22:49;11.24;55.14
67572;SHT31;54397;47.506;19.158;2023-02-28T13:26:14;11.18;54.17
67572;SHT31;54397;47.506;19.158;2023-02-28T13:29:43;11.49;54.04
67572;SHT31;54397;47.506;19.158;2023-02-28T13:33:28;11.45;48.54
67572;SHT31;54397;47.506;19.158;2023-02-28T13:36:50;10.93;47.94
67572;SHT31;54397;47.506;19.158;2023-02-28T13:40:32;10.26;49.83
67572;SHT31;54397;47.506;19.158;2023-02-28T13:44:07;10.50;49.22
67572;SHT31;54397;47.506;19.158;2023-02-28T13:50:51;10.59;50.59
67572;SHT31;54397;47.506;19.158;2023-02-28T14:01:43;10.84;47.56
67572;SHT31;54397;47.506;19.158;2023-02-28T14:05:19;10.73;49.71
67572;SHT31;54397;47.506;19.158;2023-02-28T14:08:59;10.79;49.87
67572;SHT31;54397;47.506;19.158;2023-02-28T14:12:51;10.46;49.23
67572;SHT31;54397;47.506;19.158;2023-02-28T14:16:15;10.31;50.65
67572;SHT31;54397;47.506;19.158;2023-02-28T14:19:40;10.31;49.62
67572;SHT31;54397;47.506;19.158;2023-02-28T14:23:24;10.42;51.40
67572;SHT31;54397;47.506;19.158;2023-02-28T14:34:35;9.74;45.75
67572;SHT31;54397;47.506;19.158;2023-02-28T14:37:58;9.57;46.41
67572;SHT31;54397;47.506;19.158;2023-02-28T14:41:31;9.44;46.94
67572;SHT31;54397;47.506;19.158;2023-02-28T14:44:56;9.32;47.21
67572;SHT31;54397;47.506;19.158;2023-02-28T14:48:19;8.89;47.07
67572;SHT31;54397;47.506;19.158;2023-02-28T14:51:41;8.85;55.85
67572;SHT31;54397;47.506;19.158;2023-02-28T14:55:13;9.12;54.58
67572;SHT31;54397;47.506;19.158;2023-02-28T14:58:36;9.47;57.13
67572;SHT31;54397;47.506;19.158;2023-02-28T15:02:21;9.91;57.08
67572;SHT31;54397;47.506;19.158;2023-02-28T15:05:53;10.01;58.84
67572;SHT31;54397;47.506;19.158;2023-02-28T15:09:17;10.22;54.64
67572;SHT31;54397;47.506;19.158;2023-02-28T15:12:40;9.85;53.11
67572;SHT31;54397;47.506;19.158;2023-02-28T15:16:12;9.75;53.99
67572;SHT31;54397;47.506;19.158;2023-02-28T15:19:42;9.71;52.98
67572;SHT31;54397;47.506;19.158;2023-02-28T15:23:09;9.64;53.23
67572;SHT31;54397;47.506;19.158;2023-02-28T15:26:43;9.58;54.06
67572;SHT31;54397;47.506;19.158;2023-02-28T15:30:12;9.57;54.74
67572;SHT31;54397;47.506;19.158;2023-02-28T15:33:55;9.23;48.86
67572;SHT31;54397;47.506;19.158;2023-02-28T15:40:58;8.44;49.55
67572;SHT31;54397;47.506;19.158;2023-02-28T15:47:46;7.88;52.08
67572;SHT31;54397;47.506;19.158;2023-02-28T15:54:50;7.67;52.78
67572;SHT31;54397;47.506;19.158;2023-02-28T15:58:16;7.58;53.19
67572;SHT31;54397;47.506;19.158;2023-02-28T16:01:39;7.50;52.64
67572;SHT31;54397;47.506;19.158;2023-02-28T16:08:29;7.46;53.36
67572;SHT31;54397;47.506;19.158;2023-02-28T16:11:53;7.86;67.46
67572;SHT31;54397;47.506;19.158;2023-02-28T16:15:27;8.33;61.36
67572;SHT31;54397;47.506;19.158;2023-02-28T16:18:50;8.89;60.82
67572;SHT31;54397;47.506;19.158;2023-02-28T16:22:12;9.18;56.05
67572;SHT31;54397;47.506;19.158;2023-02-28T16:25:36;9.16;57.31
67572;SHT31;54397;47.506;19.158;2023-02-28T16:29:01;9.29;57.12
67572;SHT31;54397;47.506;19.158;2023-02-28T16:32:22;9.16;57.43
67572;SHT31;54397;47.506;19.158;2023-02-28T16:35:46;9.08;57.58
67572;SHT31;54397;47.506;19.158;2023-02-28T16:39:08;8.75;51.09
67572;SHT31;54397;47.506;19.158;2023-02-28T16:42:37;8.32;51.53
67572;SHT31;54397;47.506;19.158;2023-02-28T16:45:59;7.92;53.37
67572;SHT31;54397;47.506;19.158;2023-02-28T16:49:23;7.72;53.85
67572;SHT31;54397;47.506;19.158;2023-02-28T16:52:44;7.50;54.65
67572;SHT31;54397;47.506;19.158;2023-02-28T16:56:18;7.37;55.17
67572;SHT31;54397;47.506;19.158;2023-02-28T16:59:40;7.17;56.48
67572;SHT31;54397;47.506;19.158;2023-02-28T17:03:02;7.05;56.79
67572;SHT31;54397;47.506;19.158;2023-02-28T17:06:28;7.10;56.83
67572;SHT31;54397;47.506;19.158;2023-02-28T17:09:50;7.15;56.66
67572;SHT31;54397;47.506;19.158;2023-02-28T17:13:16;7.10;59.93
67572;SHT31;54397;47.506;19.158;2023-02-28T17:16:41;7.54;64.31
67572;SHT31;54397;47.506;19.158;2023-02-28T17:20:04;8.01;61.77
67572;SHT31;54397;47.506;19.158;2023-02-28T17:23:27;8.26;61.57
67572;SHT31;54397;47.506;19.158;2023-02-28T17:26:48;8.30;60.86
67572;SHT31;54397;47.506;19.158;2023-02-28T17:30:17;8.13;59.11
67572;SHT31;54397;47.506;19.158;2023-02-28T17:33:39;8.36;59.12
67572;SHT31;54397;47.506;19.158;2023-02-28T17:37:05;8.54;62.36
67572;SHT31;54397;47.506;19.158;2023-02-28T17:40:27;8.61;53.39
67572;SHT31;54397;47.506;19.158;2023-02-28T17:43:51;8.30;53.55
67572;SHT31;54397;47.506;19.158;2023-02-28T17:47:12;8.05;54.75
67572;SHT31;54397;47.506;19.158;2023-02-28T17:50:34;7.79;55.29
67572;SHT31;54397;47.506;19.158;2023-02-28T17:53:58;7.54;55.41
67572;SHT31;54397;47.506;19.158;2023-02-28T17:57:21;7.38;55.37
67572;SHT31;54397;47.506;19.158;2023-02-28T18:00:42;7.23;56.33
67572;SHT31;54397;47.506;19.158;2023-02-28T18:04:04;7.16;56.50
67572;SHT31;54397;47.506;19.158;2023-02-28T18:07:28;7.12;56.70
67572;SHT31;54397;47.506;19.158;2023-02-28T18:10:52;6.84;56.52
67572;SHT31;54397;47.506;19.158;2023-02-28T18:14:15;7.86;72.79
67572;SHT31;54397;47.506;19.158;2023-02-28T18:17:37;7.82;54.95
67572;SHT31;54397;47.506;19.158;2023-02-28T18:21:02;7.55;55.28
67572;SHT31;54397;47.506;19.158;2023-02-28T18:24:25;7.26;56.25
67572;SHT31;54397;47.506;19.158;2023-02-28T18:27:50;7.06;56.65
67572;SHT31;54397;47.506;19.158;2023-02-28T18:31:17;6.93;56.59
67572;SHT31;54397;47.506;19.158;2023-02-28T18:34:39;6.91;57.45
67572;SHT31;54397;47.506;19.158;2023-02-28T18:41:28;6.79;57.81
67572;SHT31;54397;47.506;19.158;2023-02-28T18:44:49;6.91;57.53
67572;SHT31;54397;47.506;19.158;2023-02-28T18:48:11;6.96;57.02
67572;SHT31;54397;47.506;19.158;2023-02-28T18:51:35;6.92;56.29
67572;SHT31;54397;47.506;19.158;2023-02-28T18:54:57;6.92;57.41
67572;SHT31;54397;47.506;19.158;2023-02-28T18:58:22;6.96;57.02
67572;SHT31;54397;47.506;19.158;2023-02-28T19:01:43;6.99;57.35
67572;SHT31;54397;47.506;19.158;2023-02-28T19:05:07;7.02;57.50
67572;SHT31;54397;47.506;19.158;2023-02-28T19:08:34;7.02;57.02
67572;SHT31;54397;47.506;19.158;2023-02-28T19:11:56;7.05;56.73
67572;SHT31;54397;47.506;19.158;2023-02-28T19:15:18;6.93;57.23
67572;SHT31;54397;47.506;19.158;2023-02-28T19:18:40;6.89;57.92
67572;SHT31;54397;47.506;19.158;2023-02-28T19:22:01;6.96;57.27
67572;SHT31;54397;47.506;19.158;2023-02-28T19:25:23;7.07;57.64
67572;SHT31;54397;47.506;19.158;2023-02-28T19:28:45;6.79;56.97
67572;SHT31;54397;47.506;19.158;2023-02-28T19:32:07;6.74;58.25
67572;SHT31;54397;47.506;19.158;2023-02-28T19:35:31;6.69;58.76
67572;SHT31;54397;47.506;19.158;2023-02-28T19:38:53;6.65;58.39
67572;SHT31;54397;47.506;19.158;2023-02-28T19:42:16;6.71;58.68
67572;SHT31;54397;47.506;19.158;2023-02-28T19:45:38;6.89;57.95
67572;SHT31;54397;47.506;19.158;2023-02-28T19:49:00;6.92;58.23
67572;SHT31;54397;47.506;19.158;2023-02-28T19:52:23;6.77;58.58
67572;SHT31;54397;47.506;19.158;2023-02-28T19:55:45;6.69;58.53
67572;SHT31;54397;47.506;19.158;2023-02-28T19:59:08;6.93;67.22
67572;SHT31;54397;47.506;19.158;2023-02-28T20:02:42;7.48;67.04
67572;SHT31;54397;47.506;19.158;2023-02-28T20:06:09;7.86;64.45
67572;SHT31;54397;47.506;19.158;2023-02-28T20:09:36;8.10;64.32
67572;SHT31;54397;47.506;19.158;2023-02-28T20:12:58;8.29;63.84
67572;SHT31;54397;47.506;19.158;2023-02-28T20:16:19;8.40;57.85
67572;SHT31;54397;47.506;19.158;2023-02-28T20:19:41;8.16;55.05
67572;SHT31;54397;47.506;19.158;2023-02-28T20:23:03;7.82;55.84
67572;SHT31;54397;47.506;19.158;2023-02-28T20:26:25;7.50;56.66
67572;SHT31;54397;47.506;19.158;2023-02-28T20:29:49;7.23;57.58
67572;SHT31;54397;47.506;19.158;2023-02-28T20:33:12;7.06;58.49
67572;SHT31;54397;47.506;19.158;2023-02-28T20:36:33;6.93;58.64
67572;SHT31;54397;47.506;19.158;2023-02-28T20:39:58;6.85;59.01
67572;SHT31;54397;47.506;19.158;2023-02-28T20:43:20;6.79;59.45
67572;SHT31;54397;47.506;19.158;2023-02-28T20:46:42;6.84;59.56
67572;SHT31;54397;47.506;19.158;2023-02-28T20:50:04;6.81;59.64
67572;SHT31;54397;47.506;19.158;2023-02-28T20:53:34;6.91;59.37
67572;SHT31;54397;47.506;19.158;2023-02-28T20:56:56;6.85;59.54
67572;SHT31;54397;47.506;19.158;2023-02-28T21:00:20;6.75;59.77
67572;SHT31;54397;47.506;19.158;2023-02-28T21:03:50;6.71;60.01
67572;SHT31;54397;47.506;19.158;2023-02-28T21:07:15;6.68;60.21
67572;SHT31;54397;47.506;19.158;2023-02-28T21:10:37;6.69;60.26
67572;SHT31;54397;47.506;19.158;2023-02-28T21:14:01;6.74;60.40
67572;SHT31;54397;47.506;19.158;2023-02-28T21:17:23;6.69;60.85
67572;SHT31;54397;47.506;19.158;2023-02-28T21:20:47;6.68;60.77
67572;SHT31;54397;47.506;19.158;2023-02-28T21:24:10;6.64;60.42
67572;SHT31;54397;47.506;19.158;2023-02-28T21:27:34;6.72;66.96
67572;SHT31;54397;47.506;19.158;2023-02-28T21:31:03;7.20;69.09
67572;SHT31;54397;47.506;19.158;2023-02-28T21:34:32;7.57;59.03
67572;SHT31;54397;47.506;19.158;2023-02-28T21:37:56;7.38;58.54
67572;SHT31;54397;47.506;19.158;2023-02-28T21:41:19;7.27;58.60
67572;SHT31;54397;47.506;19.158;2023-02-28T21:44:41;7.05;59.03
67572;SHT31;54397;47.506;19.158;2023-02-28T21:48:03;6.88;59.25
67572;SHT31;54397;47.506;19.158;2023-02-28T21:51:28;6.79;59.93
67572;SHT31;54397;47.506;19.158;2023-02-28T21:54:51;6.78;59.95
67572;SHT31;54397;47.506;19.158;2023-02-28T21:58:13;6.71;60.89
67572;SHT31;54397;47.506;19.158;2023-02-28T22:01:40;6.65;60.54
67572;SHT31;54397;47.506;19.158;2023-02-28T22:05:07;6.61;60.41
67572;SHT31;54397;47.506;19.158;2023-02-28T22:08:37;6.58;60.55
67572;SHT31;54397;47.506;19.158;2023-02-28T22:12:01;6.58;60.72
67572;SHT31;54397;47.506;19.158;2023-02-28T22:15:25;6.57;60.91
67572;SHT31;54397;47.506;19.158;2023-02-28T22:18:46;6.52;61.18
67572;SHT31;54397;47.506;19.158;2023-02-28T22:22:08;6.50;61.20
67572;SHT31;54397;47.506;19.158;2023-02-28T22:25:36;6.47;61.19
67572;SHT31;54397;47.506;19.158;2023-02-28T22:28:58;6.45;61.27
67572;SHT31;54397;47.506;19.158;2023-02-28T22:32:22;6.42;61.38
67572;SHT31;54397;47.506;19.158;2023-02-28T22:35:45;6.44;60.99
67572;SHT31;54397;47.506;19.158;2023-02-28T22:39:07;6.47;60.91
67572;SHT31;54397;47.506;19.158;2023-02-28T22:42:32;6.50;61.25
67572;SHT31;54397;47.506;19.158;2023-02-28T22:46:00;6.45;61.42
67572;SHT31;54397;47.506;19.158;2023-02-28T22:49:23;6.44;60.84
67572;SHT31;54397;47.506;19.158;2023-02-28T22:52:47;6.41;61.13
67572;SHT31;54397;47.506;19.158;2023-02-28T22:56:13;6.44;61.36
67572;SHT31;54397;47.506;19.158;2023-02-28T22:59:34;6.45;60.60
67572;SHT31;54397;47.506;19.158;2023-02-28T23:02:58;6.52;60.96
67572;SHT31;54397;47.506;19.158;2023-02-28T23:06:29;6.54;60.88
67572;SHT31;54397;47.506;19.158;2023-02-28T23:09:51;6.42;61.06
67572;SHT31;54397;47.506;19.158;2023-02-28T23:13:16;6.47;61.15
67572;SHT31;54397;47.506;19.158;2023-02-28T23:16:41;6.40;60.87
67572;SHT31;54397;47.506;19.158;2023-02-28T23:20:03;6.34;61.17
67572;SHT31;54397;47.506;19.158;2023-02-28T23:23:25;6.47;61.38
67572;SHT31;54397;47.506;19.158;2023-02-28T23:26:51;6.47;61.05
67572;SHT31;54397;47.506;19.158;2023-02-28T23:30:14;6.44;61.15
67572;SHT31;54397;47.506;19.158;2023-02-28T23:33:37;6.51;61.36
67572;SHT31;54397;47.506;19.158;2023-02-28T23:37:02;6.48;61.21
67572;SHT31;54397;47.506;19.158;2023-02-28T23:40:24;6.50;60.51
67572;SHT31;54397;47.506;19.158;2023-02-28T23:43:50;6.45;60.14
67572;SHT31;54397;47.506;19.158;2023-02-28T23:47:12;6.57;60.13
67572;SHT31;54397;47.506;19.158;2023-02-28T23:50:38;6.59;60.47